HMB weather

Sohag International Airport
Sohag, Sohag Governorate, Egypt

Public forecast

Using degrees Celsius for public forecast. Weather courtesy of forecast.io.

METAR (pilot weather report)

Closest report is Assiut International Airport, 57.6 nm (106.7 km) NW. Retrieved 2019/05/19 08:00 UTC (31 minutes ago):

HEAT 190800Z 00000KT CAVOK 32/13 Q1014 NOSIG

TAF (pilot weather forecast)

Forecast is more than 12 hours old.

Closest forecast is Assiut International Airport, 57.6 nm (106.7 km) NW. Retrieved 2019/05/18 00:00 UTC (1 day ago):

TAF HEAT 182300Z 1900/2006 36009KT CAVOK